Time;durP1;ratioP1;P1;durP2;ratioP2;P2;SDS_P1;SDS_P2;PMS_P1;PMS_P2;Temp;Humidity;BMP_temperature;BMP_pressure;BME280_temperature;BME280_humidity;BME280_pressure;Samples;Min_cycle;Max_cycle;Signal;HPM_P1;HPM_P2
2022/08/14 00:00:16;;;;;;;6.70;2.72;;;28.10;51.00;;;;;;5054262;28;20021;-75
2022/08/14 00:02:42;;;;;;;3.78;3.00;;;28.00;51.30;;;;;;5054235;28;20021;-75
2022/08/14 00:05:11;;;;;;;3.45;3.13;;;27.90;51.40;;;;;;5054168;28;20028;-75
2022/08/14 00:07:37;;;;;;;5.05;3.00;;;27.90;51.40;;;;;;5054297;28;20032;-75
2022/08/14 00:10:04;;;;;;;6.68;3.60;;;28.00;51.50;;;;;;5053880;28;20033;-75
2022/08/14 00:12:39;;;;;;;7.07;3.42;;;28.00;51.50;;;;;;5054108;28;20119;-75
2022/08/14 00:15:28;;;;;;;5.20;3.25;;;27.90;51.80;;;;;;5054096;28;20048;-75
2022/08/14 00:17:54;;;;;;;5.00;3.15;;;27.80;52.20;;;;;;5052712;28;20033;-75
2022/08/14 00:20:27;;;;;;;3.50;3.20;;;27.60;52.60;;;;;;5053973;28;20031;-75
2022/08/14 00:22:53;;;;;;;6.35;3.50;;;27.50;52.70;;;;;;5053676;28;20061;-75
2022/08/14 00:25:19;;;;;;;7.70;3.53;;;27.50;52.90;;;;;;5053345;28;20080;-75
2022/08/14 00:27:44;;;;;;;5.65;3.60;;;27.60;52.90;;;;;;5053990;28;20107;-75
2022/08/14 00:30:12;;;;;;;5.25;3.40;;;27.40;53.20;;;;;;5053728;28;20079;-75
2022/08/14 00:32:39;;;;;;;6.28;3.25;;;27.40;53.40;;;;;;5053531;28;20047;-75
2022/08/14 00:35:06;;;;;;;5.43;3.70;;;27.40;53.50;;;;;;5053564;28;20428;-75
2022/08/14 00:37:32;;;;;;;6.63;3.20;;;27.30;53.50;;;;;;5053411;28;20029;-75
2022/08/14 00:39:59;;;;;;;5.72;3.25;;;27.30;53.70;;;;;;5053380;28;20423;-75
2022/08/14 00:42:25;;;;;;;3.83;3.13;;;27.30;53.70;;;;;;5053712;28;20036;-75
2022/08/14 00:44:50;;;;;;;4.50;3.47;;;27.30;54.40;;;;;;5053389;28;20385;-75
2022/08/14 00:47:17;;;;;;;5.40;3.70;;;27.40;53.90;;;;;;5053371;28;20029;-75
2022/08/14 00:49:44;;;;;;;6.60;3.60;;;27.30;53.90;;;;;;5053530;28;20029;-75
2022/08/14 00:52:14;;;;;;;3.47;3.17;;;27.30;54.00;;;;;;5053245;28;20033;-75
2022/08/14 00:54:41;;;;;;;5.22;3.63;;;27.30;54.00;;;;;;5053450;28;20025;-75
2022/08/14 00:57:07;;;;;;;5.75;3.63;;;27.30;54.10;;;;;;5053303;28;20025;-75
2022/08/14 00:59:34;;;;;;;4.00;3.70;;;27.20;54.50;;;;;;5053265;28;20361;-75
2022/08/14 01:02:00;;;;;;;7.30;3.58;;;27.20;54.40;;;;;;5053282;28;20033;-75
2022/08/14 01:04:27;;;;;;;8.27;3.60;;;27.10;54.60;;;;;;5053360;28;20032;-75
2022/08/14 01:06:54;;;;;;;5.13;3.35;;;27.10;54.60;;;;;;5053408;28;20047;-75
2022/08/14 01:09:21;;;;;;;4.85;3.40;;;27.10;54.70;;;;;;5053218;28;20083;-75
2022/08/14 01:11:51;;;;;;;7.85;3.85;;;27.00;54.70;;;;;;5053169;28;20029;-75
2022/08/14 01:14:18;;;;;;;3.95;3.60;;;27.00;55.00;;;;;;5053100;28;20036;-75
2022/08/14 01:16:44;;;;;;;6.10;3.92;;;27.00;54.90;;;;;;5052939;28;20100;-75
2022/08/14 01:21:54;;;;;;;4.10;3.60;;;26.90;55.10;;;;;;5053292;28;20095;-75
2022/08/14 01:24:21;;;;;;;6.63;4.47;;;26.90;55.10;;;;;;5052680;28;20493;-75
2022/08/14 01:26:47;;;;;;;6.45;3.42;;;27.00;55.20;;;;;;5053304;28;20021;-75
2022/08/14 01:29:14;;;;;;;5.25;3.95;;;27.00;55.10;;;;;;5052964;28;20469;-75
2022/08/14 01:31:45;;;;;;;4.30;3.90;;;27.00;55.10;;;;;;5056150;28;20526;-75
2022/08/14 01:34:11;;;;;;;4.57;4.18;;;27.00;55.20;;;;;;5057261;28;20067;-75
2022/08/14 01:36:37;;;;;;;6.47;3.88;;;26.90;55.40;;;;;;5056702;28;20067;-75
2022/08/14 01:39:08;;;;;;;5.18;3.67;;;26.80;55.60;;;;;;5056977;28;20533;-75
2022/08/14 01:41:35;;;;;;;5.40;3.97;;;26.80;55.80;;;;;;5056818;28;20025;-75
2022/08/14 01:44:09;;;;;;;5.88;3.60;;;26.70;55.90;;;;;;5057094;28;20025;-75
2022/08/14 01:46:37;;;;;;;5.90;4.00;;;26.60;56.40;;;;;;5056650;28;20033;-75
2022/08/14 01:49:06;;;;;;;6.97;3.70;;;26.60;56.30;;;;;;5056958;28;20021;-75
2022/08/14 01:51:32;;;;;;;4.57;4.18;;;26.60;56.30;;;;;;5057011;28;20025;-74
2022/08/14 01:54:00;;;;;;;5.18;4.40;;;26.60;56.30;;;;;;5056494;28;20032;-74
2022/08/14 01:56:36;;;;;;;4.13;3.67;;;26.60;56.40;;;;;;5056685;28;20131;-74
2022/08/14 01:59:04;;;;;;;4.22;3.67;;;26.60;56.50;;;;;;5056729;28;20122;-74
2022/08/14 02:01:30;;;;;;;4.90;4.40;;;26.60;57.10;;;;;;5056538;28;20025;-74
2022/08/14 02:03:56;;;;;;;4.35;3.83;;;26.70;56.40;;;;;;5056163;28;20460;-75
2022/08/14 02:06:22;;;;;;;4.68;4.28;;;26.70;56.40;;;;;;5056310;28;20079;-75
2022/08/14 02:08:47;;;;;;;6.35;3.65;;;26.60;56.30;;;;;;5056219;28;20495;-75
2022/08/14 02:11:17;;;;;;;4.43;3.80;;;26.60;56.50;;;;;;5056259;28;20051;-74
2022/08/14 02:13:45;;;;;;;4.63;3.90;;;26.60;56.70;;;;;;5056012;28;20480;-74
2022/08/14 02:16:11;;;;;;;4.45;4.10;;;26.50;56.70;;;;;;5056182;28;20480;-74
2022/08/14 02:18:38;;;;;;;5.68;4.13;;;26.50;56.90;;;;;;5056341;28;20061;-75
2022/08/14 02:21:05;;;;;;;4.70;4.30;;;26.30;57.10;;;;;;5056317;28;20096;-75
2022/08/14 02:23:31;;;;;;;4.75;3.78;;;26.40;57.20;;;;;;5055902;28;20048;-74
2022/08/14 02:25:58;;;;;;;4.60;4.20;;;26.30;57.10;;;;;;5054835;28;20025;-74
2022/08/14 02:28:25;;;;;;;6.70;3.97;;;26.30;57.20;;;;;;5055059;28;20040;-74
2022/08/14 02:30:50;;;;;;;4.60;4.20;;;26.30;57.30;;;;;;5054958;28;20070;-74
2022/08/14 02:33:17;;;;;;;4.93;3.70;;;26.30;57.30;;;;;;5054576;28;20120;-74
2022/08/14 02:35:43;;;;;;;5.68;3.65;;;26.30;57.20;;;;;;5054357;28;20025;-74
2022/08/14 02:38:09;;;;;;;6.00;3.70;;;26.40;57.20;;;;;;5054596;28;20048;-74
2022/08/14 02:40:36;;;;;;;6.43;3.78;;;26.40;57.10;;;;;;5054510;28;20071;-74
2022/08/14 02:43:03;;;;;;;6.63;4.07;;;26.50;57.10;;;;;;5054678;28;20025;-74
2022/08/14 02:45:31;;;;;;;7.25;4.38;;;26.50;57.70;;;;;;5054477;28;20025;-74
2022/08/14 02:47:58;;;;;;;4.93;3.90;;;26.40;57.30;;;;;;5054796;28;20052;-74
2022/08/14 02:50:23;;;;;;;5.63;4.30;;;26.30;57.40;;;;;;5054609;28;20554;-75
2022/08/14 02:52:49;;;;;;;4.72;4.32;;;26.30;57.60;;;;;;5054360;28;20116;-74
2022/08/14 02:55:15;;;;;;;5.20;4.40;;;26.20;57.70;;;;;;5054531;28;20021;-75
2022/08/14 02:57:42;;;;;;;6.13;4.45;;;26.20;58.00;;;;;;5054614;28;20028;-75
2022/08/14 03:00:11;;;;;;;4.68;4.28;;;26.10;57.90;;;;;;5054316;28;20472;-75
2022/08/14 03:02:36;;;;;;;4.50;4.10;;;26.10;58.00;;;;;;5054442;28;20025;-75
2022/08/14 03:05:02;;;;;;;5.78;4.32;;;26.20;57.90;;;;;;5054239;28;20098;-75
2022/08/14 03:07:28;;;;;;;5.38;4.30;;;26.20;58.00;;;;;;5054503;28;20063;-75
2022/08/14 03:09:53;;;;;;;4.65;4.25;;;26.20;57.90;;;;;;5054042;28;20061;-75
2022/08/14 03:12:20;;;;;;;6.28;5.28;;;26.20;57.90;;;;;;5054171;28;20029;-75
2022/08/14 03:14:50;;;;;;;4.82;4.43;;;26.20;58.10;;;;;;5054184;28;20400;-75
2022/08/14 03:17:17;;;;;;;7.00;4.50;;;26.10;58.20;;;;;;5053850;28;20499;-75
2022/08/14 03:19:42;;;;;;;4.63;4.22;;;26.00;58.20;;;;;;5054291;28;20155;-75
2022/08/14 03:22:08;;;;;;;5.68;4.10;;;26.00;58.40;;;;;;5054309;28;20067;-75
2022/08/14 03:24:35;;;;;;;8.77;4.50;;;26.00;58.50;;;;;;5015578;28;1116401;-75
2022/08/14 03:27:01;;;;;;;4.70;4.30;;;26.00;58.40;;;;;;5054983;28;20040;-75
2022/08/14 03:29:27;;;;;;;9.43;3.90;;;26.10;58.30;;;;;;5055003;28;20029;-75
2022/08/14 03:31:54;;;;;;;6.03;4.72;;;26.10;58.30;;;;;;5054936;28;20108;-75
2022/08/14 03:34:22;;;;;;;4.53;4.13;;;26.10;58.80;;;;;;5055066;28;20488;-75
2022/08/14 03:36:53;;;;;;;6.43;4.53;;;26.10;58.20;;;;;;5055005;28;20426;-75
2022/08/14 03:39:20;;;;;;;5.57;4.80;;;26.10;58.90;;;;;;5055054;28;20029;-75
2022/08/14 03:41:47;;;;;;;6.80;5.00;;;26.00;58.40;;;;;;5054306;28;20033;-75
2022/08/14 03:44:13;;;;;;;4.88;4.47;;;26.00;58.40;;;;;;5054675;28;20392;-75
2022/08/14 03:46:41;;;;;;;4.68;4.03;;;26.00;58.50;;;;;;5054443;28;20036;-75
2022/08/14 03:49:08;;;;;;;4.90;4.50;;;26.00;58.50;;;;;;5054212;28;20037;-75
2022/08/14 03:51:35;;;;;;;5.03;4.45;;;26.00;58.70;;;;;;5054525;28;20036;-75
2022/08/14 03:54:04;;;;;;;6.78;5.18;;;26.00;58.70;;;;;;5053531;28;20044;-75
2022/08/14 03:56:30;;;;;;;7.40;4.85;;;25.90;58.80;;;;;;5054326;28;20546;-75
2022/08/14 03:59:10;;;;;;;7.95;4.93;;;25.90;59.00;;;;;;5054142;28;20036;-75
2022/08/14 04:01:39;;;;;;;7.72;4.75;;;25.80;59.20;;;;;;5054165;28;20078;-75
2022/08/14 04:04:06;;;;;;;5.75;5.22;;;25.70;59.30;;;;;;5054366;28;20056;-75
2022/08/14 04:06:33;;;;;;;6.70;5.00;;;25.70;59.40;;;;;;5054379;28;20157;-74
2022/08/14 04:08:59;;;;;;;7.32;4.90;;;25.70;59.60;;;;;;5054137;28;20032;-74
2022/08/14 04:11:25;;;;;;;7.07;5.22;;;25.60;59.80;;;;;;5054034;28;20099;-74
2022/08/14 04:13:51;;;;;;;7.60;5.00;;;25.50;60.00;;;;;;5054124;28;20080;-74
2022/08/14 04:16:21;;;;;;;5.65;5.18;;;25.50;60.00;;;;;;5054237;28;20468;-74
2022/08/14 04:18:52;;;;;;;6.65;5.05;;;25.40;60.30;;;;;;5054022;28;20036;-74
2022/08/14 04:21:21;;;;;;;5.68;5.07;;;25.40;60.50;;;;;;5054207;28;20018;-74
2022/08/14 04:23:47;;;;;;;5.93;4.82;;;25.40;60.40;;;;;;5053741;28;20109;-74
2022/08/14 04:26:15;;;;;;;8.88;5.07;;;25.40;60.30;;;;;;5053497;28;20528;-74
2022/08/14 04:28:44;;;;;;;7.85;4.82;;;25.50;60.10;;;;;;5054005;28;20060;-74
2022/08/14 04:31:13;;;;;;;9.18;5.20;;;25.50;60.40;;;;;;5053924;28;20025;-74
2022/08/14 04:33:38;;;;;;;6.05;5.22;;;25.50;60.40;;;;;;5053722;28;20112;-74
2022/08/14 04:36:04;;;;;;;9.30;5.40;;;25.40;60.60;;;;;;5053771;28;20099;-74
2022/08/14 04:43:58;;;;;;;6.88;6.10;;;25.30;60.80;;;;;;5053557;28;20090;-74
2022/08/14 04:46:27;;;;;;;5.35;4.85;;;25.30;60.90;;;;;;5053591;28;20029;-74
2022/08/14 04:48:54;;;;;;;5.50;5.05;;;25.20;61.20;;;;;;5053481;28;20100;-74
2022/08/14 04:51:25;;;;;;;7.43;5.57;;;25.20;61.10;;;;;;5053613;28;20029;-74
2022/08/14 04:53:51;;;;;;;6.18;5.65;;;25.30;61.70;;;;;;5053276;28;20041;-74
2022/08/14 04:56:21;;;;;;;5.90;5.10;;;25.30;61.00;;;;;;5053367;28;20028;-74
2022/08/14 04:58:50;;;;;;;5.78;4.85;;;25.20;61.00;;;;;;5053407;28;20036;-74
2022/08/14 05:01:16;;;;;;;5.53;5.03;;;25.20;61.10;;;;;;5053468;28;20419;-74
2022/08/14 05:03:42;;;;;;;5.97;5.47;;;25.30;61.30;;;;;;5052715;28;20022;-74
2022/08/14 05:06:09;;;;;;;5.60;5.10;;;25.20;61.20;;;;;;5053448;28;20025;-74
2022/08/14 05:08:38;;;;;;;5.75;5.15;;;25.30;61.20;;;;;;5053149;28;20017;-74
2022/08/14 05:11:06;;;;;;;5.97;5.47;;;25.30;61.30;;;;;;5053420;28;20029;-74
2022/08/14 05:13:33;;;;;;;7.43;5.28;;;25.30;61.30;;;;;;5052897;28;20068;-74
2022/08/14 05:16:00;;;;;;;7.32;5.90;;;25.20;61.40;;;;;;5053558;28;20025;-74
2022/08/14 05:18:30;;;;;;;5.78;5.28;;;25.20;61.50;;;;;;5053248;28;20029;-74
2022/08/14 05:20:57;;;;;;;6.03;5.47;;;25.20;61.60;;;;;;5053002;28;20407;-74
2022/08/14 05:23:26;;;;;;;7.28;5.50;;;25.10;62.20;;;;;;5052764;28;20087;-73
2022/08/14 05:26:02;;;;;;;8.27;5.80;;;25.10;61.90;;;;;;5053129;28;20036;-74
2022/08/14 05:28:30;;;;;;;10.23;6.10;;;25.00;62.20;;;;;;5052973;28;20080;-74
2022/08/14 05:30:59;;;;;;;8.05;5.97;;;24.80;62.60;;;;;;5052621;28;20029;-74
2022/08/14 05:33:27;;;;;;;7.00;6.30;;;24.70;63.10;;;;;;5052680;28;20040;-73
2022/08/14 05:35:59;;;;;;;6.03;5.43;;;24.70;63.20;;;;;;5052808;28;20108;-74
2022/08/14 05:38:32;;;;;;;7.20;6.20;;;24.60;63.30;;;;;;5052903;28;20373;-74
2022/08/14 05:41:01;;;;;;;7.28;6.10;;;24.70;63.50;;;;;;5052960;28;20025;-74
2022/08/14 05:43:27;;;;;;;6.50;5.90;;;24.60;63.50;;;;;;5052694;28;20469;-74
2022/08/14 05:45:52;;;;;;;7.10;6.50;;;24.50;64.00;;;;;;5052795;28;20039;-74
2022/08/14 05:48:18;;;;;;;7.40;6.00;;;24.40;64.40;;;;;;5052643;28;20040;-74
2022/08/14 05:50:44;;;;;;;7.88;6.20;;;24.30;64.40;;;;;;5052962;28;20025;-74
2022/08/14 05:53:10;;;;;;;6.65;5.65;;;24.40;64.20;;;;;;5052481;28;20095;-75
2022/08/14 05:55:36;;;;;;;6.60;6.00;;;24.60;64.30;;;;;;5052577;28;20025;-74
2022/08/14 05:58:05;;;;;;;9.73;5.72;;;24.60;64.00;;;;;;5052884;28;20021;-74
2022/08/14 06:00:35;;;;;;;7.78;6.35;;;24.80;63.70;;;;;;5052921;28;20033;-74
2022/08/14 06:03:03;;;;;;;9.30;6.75;;;24.90;63.30;;;;;;5052980;28;20029;-74
2022/08/14 06:05:29;;;;;;;9.20;6.03;;;25.00;63.30;;;;;;5052613;28;20473;-74
2022/08/14 06:07:56;;;;;;;9.15;6.57;;;25.00;63.10;;;;;;5052883;28;20033;-74
2022/08/14 06:10:22;;;;;;;6.68;6.05;;;25.00;63.20;;;;;;5052297;28;20056;-74
2022/08/14 06:12:48;;;;;;;7.70;6.97;;;25.00;63.20;;;;;;5052765;28;20049;-74
2022/08/14 06:15:13;;;;;;;8.48;6.82;;;25.10;63.40;;;;;;5052771;28;20415;-74
2022/08/14 06:17:47;;;;;;;7.22;6.53;;;25.10;63.30;;;;;;5055908;28;20082;-75
2022/08/14 06:20:14;;;;;;;7.07;6.35;;;25.20;63.20;;;;;;5056555;28;20456;-75
2022/08/14 06:22:41;;;;;;;7.85;6.65;;;25.20;63.00;;;;;;5055899;28;20103;-75
2022/08/14 06:25:08;;;;;;;7.43;6.65;;;25.20;62.70;;;;;;5055737;28;20047;-75
2022/08/14 06:27:42;;;;;;;6.80;6.20;;;25.40;62.70;;;;;;5056268;28;20397;-75
2022/08/14 06:30:17;;;;;;;8.10;6.35;;;25.40;62.20;;;;;;5056301;28;20419;-75
2022/08/14 06:32:44;;;;;;;8.70;6.22;;;25.40;62.20;;;;;;5055580;28;20543;-75
2022/08/14 06:35:12;;;;;;;7.85;6.10;;;25.60;62.20;;;;;;5056147;28;20095;-75
2022/08/14 06:37:44;;;;;;;8.57;6.70;;;25.70;61.90;;;;;;5056065;28;20032;-75
2022/08/14 06:40:11;;;;;;;;;;;25.80;61.50;;;;;;5056242;28;20021;-75
2022/08/14 06:42:38;;;;;;;8.90;7.10;;;25.90;61.60;;;;;;5055741;28;20352;-75
2022/08/14 06:45:04;;;;;;;8.15;6.80;;;25.80;61.70;;;;;;5056045;28;20036;-75
2022/08/14 06:47:34;;;;;;;7.35;6.65;;;25.80;61.70;;;;;;5055503;28;20025;-75
2022/08/14 06:50:00;;;;;;;10.05;7.25;;;25.90;61.90;;;;;;5056114;28;20025;-75
2022/08/14 06:52:25;;;;;;;7.30;6.55;;;25.90;61.90;;;;;;5055760;28;20029;-75
2022/08/14 06:54:51;;;;;;;10.13;6.72;;;25.90;61.80;;;;;;5055482;28;20032;-75
2022/08/14 06:57:16;;;;;;;9.30;7.03;;;25.90;62.00;;;;;;5055507;28;20031;-75
2022/08/14 06:59:42;;;;;;;9.80;7.63;;;25.90;62.40;;;;;;5055274;28;20411;-75
2022/08/14 07:07:40;;;;;;;10.70;7.18;;;26.00;62.30;;;;;;5055467;28;20027;-75
2022/08/14 07:10:07;;;;;;;9.20;7.28;;;26.20;62.10;;;;;;5055447;28;20025;-75
2022/08/14 07:12:34;;;;;;;9.13;8.30;;;26.20;62.80;;;;;;5054964;28;20082;-75
2022/08/14 07:15:00;;;;;;;9.95;6.78;;;26.40;61.70;;;;;;5055395;28;20099;-75
2022/08/14 07:17:26;;;;;;;11.43;7.97;;;26.40;61.70;;;;;;5055443;28;20104;-75
2022/08/14 07:19:52;;;;;;;8.90;8.10;;;26.40;61.90;;;;;;5055383;28;20025;-75
2022/08/14 07:22:18;;;;;;;8.55;7.18;;;26.50;61.80;;;;;;5055345;28;20078;-75
2022/08/14 07:24:43;;;;;;;8.77;7.88;;;26.50;62.30;;;;;;5054490;28;20115;-75
2022/08/14 07:27:09;;;;;;;10.52;7.50;;;26.60;61.70;;;;;;5054391;28;20021;-75
2022/08/14 07:29:34;;;;;;;9.70;7.80;;;26.60;61.50;;;;;;5054602;28;20476;-75
2022/08/14 07:32:00;;;;;;;9.43;7.88;;;26.50;62.00;;;;;;5054825;28;20017;-75
2022/08/14 07:34:28;;;;;;;10.38;7.57;;;26.50;62.40;;;;;;5054509;28;20062;-75
2022/08/14 07:36:54;;;;;;;7.40;6.65;;;26.60;62.30;;;;;;5055064;28;20049;-75
2022/08/14 07:39:20;;;;;;;8.60;7.80;;;26.70;62.10;;;;;;5054818;28;20039;-75
2022/08/14 07:41:46;;;;;;;8.43;7.63;;;26.80;62.00;;;;;;5054512;28;20578;-75
2022/08/14 07:44:12;;;;;;;11.20;7.53;;;26.80;61.50;;;;;;5054533;28;20025;-75
2022/08/14 07:46:41;;;;;;;7.78;6.97;;;26.90;61.30;;;;;;5054778;28;20032;-75
2022/08/14 07:49:08;;;;;;;9.45;7.15;;;27.00;61.30;;;;;;5054512;28;20056;-75
2022/08/14 07:51:33;;;;;;;9.48;7.40;;;27.10;61.50;;;;;;5054721;28;20087;-75
2022/08/14 07:54:03;;;;;;;7.50;6.88;;;27.10;61.50;;;;;;5054327;28;20477;-75
2022/08/14 07:56:28;;;;;;;7.80;6.65;;;27.20;61.10;;;;;;5054584;28;20106;-75
2022/08/14 07:58:54;;;;;;;9.10;7.40;;;27.30;60.70;;;;;;5054442;28;20075;-75
2022/08/14 08:01:20;;;;;;;7.78;7.00;;;27.50;60.90;;;;;;5054378;28;20024;-75
2022/08/14 08:03:48;;;;;;;7.60;6.80;;;27.50;60.40;;;;;;5054381;28;20032;-75
2022/08/14 08:06:15;;;;;;;7.40;6.70;;;27.60;59.90;;;;;;5054315;28;20432;-75
2022/08/14 08:08:42;;;;;;;8.88;6.72;;;27.70;60.20;;;;;;5054279;28;20029;-75
2022/08/14 08:11:10;;;;;;;9.25;6.28;;;27.80;59.80;;;;;;5053977;28;20404;-75
2022/08/14 08:13:40;;;;;;;8.15;6.85;;;27.80;59.40;;;;;;5054020;28;20468;-75
2022/08/14 08:16:09;;;;;;;9.55;6.55;;;27.90;59.60;;;;;;5054195;28;20040;-75
2022/08/14 08:18:35;;;;;;;6.95;6.03;;;28.00;59.50;;;;;;5053796;28;20032;-75
2022/08/14 08:21:00;;;;;;;8.45;6.03;;;28.00;59.30;;;;;;5053803;28;20025;-75
2022/08/14 08:23:29;;;;;;;6.00;5.47;;;28.10;59.10;;;;;;5053736;28;20025;-75
2022/08/14 08:25:57;;;;;;;6.75;6.10;;;28.30;59.20;;;;;;5053633;28;20382;-75
2022/08/14 08:28:26;;;;;;;6.22;5.72;;;28.40;58.30;;;;;;5053810;28;20421;-75
2022/08/14 08:31:00;;;;;;;6.80;6.13;;;28.50;58.20;;;;;;5053939;28;20024;-76
2022/08/14 08:33:28;;;;;;;6.78;6.07;;;28.60;58.20;;;;;;5053726;28;20047;-76
2022/08/14 08:35:59;;;;;;;6.80;5.63;;;28.60;58.60;;;;;;5053529;28;20423;-75
2022/08/14 08:38:26;;;;;;;6.95;5.75;;;28.70;57.80;;;;;;5053753;28;20024;-75
2022/08/14 08:40:55;;;;;;;9.95;6.40;;;28.80;57.80;;;;;;5053371;28;20170;-75
2022/08/14 08:43:32;;;;;;;7.65;5.65;;;28.90;57.40;;;;;;5053352;28;20025;-76
2022/08/14 08:46:09;;;;;;;7.43;5.95;;;28.90;58.10;;;;;;5053455;28;20487;-76
2022/08/14 08:48:53;;;;;;;7.53;5.72;;;29.00;58.40;;;;;;5053155;28;20499;-76
2022/08/14 08:51:24;;;;;;;6.25;5.75;;;29.10;57.60;;;;;;5053240;28;20495;-75
2022/08/14 08:54:00;;;;;;;7.25;6.38;;;29.10;56.90;;;;;;5053552;28;20040;-75
2022/08/14 08:56:34;;;;;;;5.68;5.18;;;29.20;56.70;;;;;;5053456;28;20086;-75
2022/08/14 08:59:00;;;;;;;6.10;5.50;;;29.30;57.30;;;;;;5053432;28;20112;-75
2022/08/14 09:01:32;;;;;;;7.43;5.25;;;29.40;56.90;;;;;;5052924;28;20029;-75
2022/08/14 09:04:02;;;;;;;7.28;5.28;;;29.50;57.20;;;;;;5053490;28;20025;-75
2022/08/14 09:06:27;;;;;;;7.72;5.55;;;29.50;56.60;;;;;;5053283;28;20476;-75
2022/08/14 09:08:53;;;;;;;9.77;5.90;;;29.60;56.60;;;;;;5053410;28;20036;-75
2022/08/14 09:11:18;;;;;;;6.13;5.28;;;29.60;56.90;;;;;;5053052;28;20127;-75
2022/08/14 09:13:44;;;;;;;5.80;5.00;;;29.70;56.30;;;;;;5052611;28;20043;-75
2022/08/14 09:16:10;;;;;;;5.30;4.80;;;29.90;56.30;;;;;;5053056;28;20196;-75
2022/08/14 09:18:39;;;;;;;5.90;4.65;;;29.90;56.40;;;;;;5053197;28;20037;-75
2022/08/14 09:21:06;;;;;;;6.22;5.13;;;30.10;55.70;;;;;;5053028;28;20473;-75
2022/08/14 09:23:32;;;;;;;16.60;6.68;;;30.30;54.60;;;;;;5052740;28;20136;-75
2022/08/14 09:25:58;;;;;;;6.75;5.03;;;30.30;56.00;;;;;;5053011;28;20025;-76
2022/08/14 09:28:23;;;;;;;7.18;4.68;;;30.40;55.80;;;;;;5053338;28;20086;-76
2022/08/14 09:30:53;;;;;;;6.63;4.95;;;30.50;54.70;;;;;;5053201;28;20027;-76
2022/08/14 09:33:42;;;;;;;8.10;5.32;;;30.70;54.20;;;;;;5052993;28;20083;-76
2022/08/14 09:36:38;;;;;;;8.98;5.00;;;30.80;54.10;;;;;;5053043;28;20096;-75
2022/08/14 09:39:28;;;;;;;5.90;4.55;;;30.80;54.20;;;;;;5052827;28;20075;-75
2022/08/14 09:42:18;;;;;;;7.55;4.85;;;30.90;54.00;;;;;;5052785;28;20036;-76
2022/08/14 09:45:01;;;;;;;5.55;4.18;;;31.00;54.30;;;;;;5052909;28;20028;-75
2022/08/14 09:47:56;;;;;;;7.78;4.55;;;31.00;53.70;;;;;;5053025;28;20025;-75
2022/08/14 09:50:23;;;;;;;8.32;5.07;;;31.10;53.20;;;;;;5052979;28;20032;-75
2022/08/14 09:52:53;;;;;;;4.05;3.67;;;31.10;52.70;;;;;;5056268;28;20065;-76
2022/08/14 09:55:20;;;;;;;6.35;4.13;;;31.20;51.80;;;;;;5056528;28;20100;-76
2022/08/14 09:57:46;;;;;;;7.85;3.80;;;31.30;52.50;;;;;;5056678;28;20082;-76
2022/08/14 10:00:13;;;;;;;6.05;3.83;;;31.40;51.40;;;;;;5056698;28;20042;-76
2022/08/14 10:02:50;;;;;;;6.63;4.50;;;31.40;52.00;;;;;;5056569;28;20029;-76
2022/08/14 10:05:32;;;;;;;7.35;4.35;;;31.50;52.60;;;;;;5056479;28;20423;-76
2022/08/14 10:07:58;;;;;;;;;;;31.70;52.30;;;;;;5056795;28;20471;-76
2022/08/14 10:10:51;;;;;;;7.68;4.80;;;31.80;51.90;;;;;;5056318;28;19939;-76
2022/08/14 10:13:23;;;;;;;5.38;3.80;;;31.90;50.70;;;;;;5054908;28;20048;-76
2022/08/14 10:15:49;;;;;;;4.95;4.45;;;31.90;51.00;;;;;;5056150;28;20033;-76
2022/08/14 10:18:18;;;;;;;5.13;3.95;;;32.00;51.80;;;;;;5056299;28;20111;-76
2022/08/14 10:21:00;;;;;;;4.20;3.80;;;32.10;50.90;;;;;;5056116;28;20464;-76
2022/08/14 10:23:38;;;;;;;5.95;3.55;;;32.00;51.40;;;;;;5055736;28;20036;-76
2022/08/14 10:26:06;;;;;;;7.47;4.28;;;32.10;51.60;;;;;;5056017;28;20037;-76
2022/08/14 10:28:44;;;;;;;4.30;3.83;;;32.20;50.70;;;;;;5056113;28;20017;-76
2022/08/14 10:31:18;;;;;;;5.35;4.20;;;32.30;50.90;;;;;;5055889;28;20049;-76
2022/08/14 10:33:55;;;;;;;4.43;4.05;;;32.30;51.20;;;;;;5056065;28;20398;-76
2022/08/14 10:36:33;;;;;;;4.80;4.03;;;32.50;50.50;;;;;;5055960;28;20384;-76
2022/08/14 10:39:00;;;;;;;4.22;3.83;;;32.40;49.50;;;;;;5056107;28;20025;-76
2022/08/14 10:41:39;;;;;;;4.72;3.80;;;32.50;49.40;;;;;;5055740;28;20040;-76
2022/08/14 10:44:09;;;;;;;5.30;4.00;;;32.50;49.60;;;;;;5055776;28;20033;-76
2022/08/14 10:46:46;;;;;;;4.63;3.47;;;32.60;49.40;;;;;;5055713;28;20108;-76
2022/08/14 10:49:22;;;;;;;6.53;3.65;;;32.80;48.40;;;;;;5055789;28;20024;-76
2022/08/14 10:52:23;;;;;;;3.88;3.50;;;32.80;48.30;;;;;;5055621;28;20025;-76
2022/08/14 10:54:50;;;;;;;4.40;4.00;;;32.80;48.80;;;;;;5055429;28;20043;-76
2022/08/14 10:57:18;;;;;;;4.05;3.67;;;32.80;48.60;;;;;;5055493;28;20029;-76
2022/08/14 10:59:59;;;;;;;4.60;3.53;;;32.80;48.20;;;;;;5055517;28;20079;-76
2022/08/14 11:02:35;;;;;;;6.47;3.63;;;32.90;48.00;;;;;;5055261;28;20025;-76
2022/08/14 11:05:07;;;;;;;3.65;3.20;;;32.90;47.90;;;;;;5055146;28;20033;-76
2022/08/14 11:07:39;;;;;;;4.55;3.33;;;33.00;48.10;;;;;;5055245;28;20476;-76
2022/08/14 11:10:11;;;;;;;4.13;3.72;;;33.00;47.80;;;;;;5055334;28;20024;-76
2022/08/14 11:12:47;;;;;;;8.27;3.70;;;33.10;48.50;;;;;;5055380;28;20032;-76
2022/08/14 11:15:18;;;;;;;3.60;3.30;;;33.20;48.00;;;;;;5055278;28;20066;-76
2022/08/14 11:17:46;;;;;;;4.60;3.00;;;33.30;47.50;;;;;;5055349;28;20025;-76
2022/08/14 11:20:12;;;;;;;4.60;3.45;;;33.40;47.70;;;;;;5055392;28;20079;-76
2022/08/14 11:22:40;;;;;;;3.83;3.53;;;33.40;47.20;;;;;;5055192;28;20096;-76
2022/08/14 11:25:08;;;;;;;4.45;3.53;;;33.50;47.00;;;;;;5054598;28;20091;-76
2022/08/14 11:27:34;;;;;;;3.47;3.17;;;33.50;46.80;;;;;;5054961;28;20048;-76
2022/08/14 11:30:05;;;;;;;3.03;2.80;;;33.60;46.90;;;;;;5054823;28;20480;-76
2022/08/14 11:32:31;;;;;;;4.07;3.10;;;33.70;46.70;;;;;;5054709;28;20037;-76
2022/08/14 11:34:58;;;;;;;4.72;3.80;;;33.80;46.40;;;;;;5054628;28;20060;-76
2022/08/14 11:37:29;;;;;;;4.93;3.13;;;33.70;45.80;;;;;;5054329;28;20033;-76
2022/08/14 11:39:55;;;;;;;3.28;2.97;;;33.50;46.30;;;;;;5054206;28;20515;-76
2022/08/14 11:42:24;;;;;;;3.50;3.10;;;33.60;45.50;;;;;;5054503;28;20044;-75
2022/08/14 11:44:56;;;;;;;3.08;2.88;;;33.80;45.80;;;;;;5054926;28;20166;-76
2022/08/14 11:47:23;;;;;;;3.72;2.72;;;33.80;46.10;;;;;;5054678;28;20028;-77
2022/08/14 11:49:49;;;;;;;3.35;3.00;;;33.80;45.30;;;;;;5054546;28;20052;-77
2022/08/14 11:52:19;;;;;;;4.43;3.50;;;33.90;45.70;;;;;;5054301;28;20056;-76
2022/08/14 11:54:55;;;;;;;6.10;3.38;;;34.10;44.80;;;;;;5054463;28;20365;-76
2022/08/14 11:57:21;;;;;;;3.10;2.90;;;34.10;45.20;;;;;;5054076;28;20556;-76
2022/08/14 11:59:46;;;;;;;3.97;2.90;;;34.00;45.00;;;;;;5054317;28;20363;-76
2022/08/14 12:02:16;;;;;;;5.07;2.90;;;34.10;44.40;;;;;;5053905;28;20024;-76
2022/08/14 12:04:53;;;;;;;2.97;2.78;;;34.30;44.20;;;;;;5054518;28;20021;-76
2022/08/14 12:07:19;;;;;;;4.47;2.40;;;34.30;43.40;;;;;;5053759;28;20057;-75
2022/08/14 12:09:50;;;;;;;3.65;2.60;;;34.20;44.10;;;;;;5053967;28;20078;-75
2022/08/14 12:12:24;;;;;;;2.95;2.40;;;34.40;43.60;;;;;;5053929;28;20507;-75
2022/08/14 12:14:58;;;;;;;2.80;2.60;;;34.50;42.60;;;;;;5053103;28;20049;-76
2022/08/14 12:17:41;;;;;;;2.60;2.40;;;34.60;42.70;;;;;;5053997;28;20021;-76
2022/08/14 12:20:08;;;;;;;4.15;2.67;;;34.70;41.70;;;;;;5054015;28;20029;-76
2022/08/14 12:22:36;;;;;;;2.78;2.58;;;34.80;42.40;;;;;;5053907;28;20032;-76
2022/08/14 12:25:05;;;;;;;3.40;2.85;;;34.60;42.60;;;;;;5053243;28;20055;-76
2022/08/14 12:27:51;;;;;;;4.32;3.17;;;34.40;43.00;;;;;;5053640;28;20032;-76
2022/08/14 12:30:33;;;;;;;3.67;2.53;;;34.30;43.80;;;;;;5053841;28;20018;-76
2022/08/14 12:32:59;;;;;;;4.45;2.70;;;34.00;44.10;;;;;;5053603;28;20048;-76
2022/08/14 12:35:56;;;;;;;3.47;2.90;;;34.00;43.90;;;;;;5053322;28;20484;-76
2022/08/14 12:38:31;;;;;;;3.10;2.80;;;34.00;44.10;;;;;;5049204;28;20037;-76
2022/08/14 12:40:57;;;;;;;3.47;3.05;;;34.00;44.00;;;;;;5052978;28;20485;-76
2022/08/14 12:43:23;;;;;;;4.05;3.30;;;34.10;44.30;;;;;;5053387;28;20029;-76
2022/08/14 12:45:53;;;;;;;4.00;2.70;;;34.20;44.40;;;;;;5052959;28;20024;-76
2022/08/14 12:48:20;;;;;;;5.35;3.28;;;34.30;44.10;;;;;;5053257;28;20407;-76
2022/08/14 12:50:46;;;;;;;5.18;2.95;;;34.60;43.30;;;;;;5053126;28;20029;-76
2022/08/14 12:53:16;;;;;;;4.68;3.28;;;34.70;43.20;;;;;;5053251;28;20082;-76
2022/08/14 12:55:44;;;;;;;3.40;2.88;;;34.80;43.40;;;;;;5053200;28;20033;-76
2022/08/14 12:58:10;;;;;;;3.53;2.65;;;34.60;42.50;;;;;;5052695;28;20020;-76
2022/08/14 13:00:44;;;;;;;4.13;2.95;;;34.60;42.80;;;;;;5053002;28;20116;-76
2022/08/14 13:03:22;;;;;;;4.25;3.00;;;34.60;43.20;;;;;;5053042;28;20404;-76
2022/08/14 13:05:48;;;;;;;3.22;2.92;;;34.70;43.00;;;;;;5052936;28;20468;-76
2022/08/14 13:08:15;;;;;;;3.10;2.80;;;34.80;42.50;;;;;;5052713;28;20120;-76
2022/08/14 13:10:41;;;;;;;3.10;2.72;;;35.00;42.70;;;;;;5052662;28;20503;-76